sensor_id;sensor_type;location;lat;lon;timestamp;P1;durP1;ratioP1;P2;durP2;ratioP2
22250;SDS011;59348;52.158;5.588;2022-10-17T00:02:22;7.82;;;5.85;;
22250;SDS011;59348;52.158;5.588;2022-10-17T00:04:51;8.73;;;6.15;;
22250;SDS011;59348;52.158;5.588;2022-10-17T00:07:18;10.90;;;6.35;;
22250;SDS011;59348;52.158;5.588;2022-10-17T00:09:45;10.35;;;6.47;;
22250;SDS011;59348;52.158;5.588;2022-10-17T00:12:12;11.70;;;6.60;;
22250;SDS011;59348;52.158;5.588;2022-10-17T00:14:40;11.40;;;6.85;;
22250;SDS011;59348;52.158;5.588;2022-10-17T00:17:07;9.93;;;7.13;;
22250;SDS011;59348;52.158;5.588;2022-10-17T00:19:34;10.13;;;6.03;;
22250;SDS011;59348;52.158;5.588;2022-10-17T00:22:03;9.30;;;6.47;;
22250;SDS011;59348;52.158;5.588;2022-10-17T00:24:30;9.90;;;7.03;;
22250;SDS011;59348;52.158;5.588;2022-10-17T00:26:58;10.48;;;7.00;;
22250;SDS011;59348;52.158;5.588;2022-10-17T00:29:25;11.70;;;7.03;;
22250;SDS011;59348;52.158;5.588;2022-10-17T00:31:53;15.43;;;8.75;;
22250;SDS011;59348;52.158;5.588;2022-10-17T00:34:21;10.43;;;8.02;;
22250;SDS011;59348;52.158;5.588;2022-10-17T00:36:48;10.32;;;7.90;;
22250;SDS011;59348;52.158;5.588;2022-10-17T00:39:17;12.02;;;8.07;;
22250;SDS011;59348;52.158;5.588;2022-10-17T00:41:44;10.73;;;8.07;;
22250;SDS011;59348;52.158;5.588;2022-10-17T00:46:54;10.90;;;8.38;;
22250;SDS011;59348;52.158;5.588;2022-10-17T00:49:21;12.95;;;8.65;;
22250;SDS011;59348;52.158;5.588;2022-10-17T00:51:51;13.05;;;8.85;;
22250;SDS011;59348;52.158;5.588;2022-10-17T00:54:21;12.00;;;9.10;;
22250;SDS011;59348;52.158;5.588;2022-10-17T00:56:49;9.80;;;8.73;;
22250;SDS011;59348;52.158;5.588;2022-10-17T00:59:17;12.90;;;9.32;;
22250;SDS011;59348;52.158;5.588;2022-10-17T01:01:47;12.73;;;8.98;;
22250;SDS011;59348;52.158;5.588;2022-10-17T01:04:17;14.80;;;9.60;;
22250;SDS011;59348;52.158;5.588;2022-10-17T01:06:44;14.13;;;10.23;;
22250;SDS011;59348;52.158;5.588;2022-10-17T01:09:12;14.27;;;10.50;;
22250;SDS011;59348;52.158;5.588;2022-10-17T01:11:43;14.00;;;10.50;;
22250;SDS011;59348;52.158;5.588;2022-10-17T01:14:12;16.55;;;10.27;;
22250;SDS011;59348;52.158;5.588;2022-10-17T01:16:44;14.52;;;10.48;;
22250;SDS011;59348;52.158;5.588;2022-10-17T01:19:25;13.52;;;10.60;;
22250;SDS011;59348;52.158;5.588;2022-10-17T01:22:00;12.43;;;10.15;;
22250;SDS011;59348;52.158;5.588;2022-10-17T01:24:35;16.75;;;10.77;;
22250;SDS011;59348;52.158;5.588;2022-10-17T01:29:54;12.75;;;10.57;;
22250;SDS011;59348;52.158;5.588;2022-10-17T01:32:26;13.38;;;10.93;;
22250;SDS011;59348;52.158;5.588;2022-10-17T01:34:57;17.40;;;12.27;;
22250;SDS011;59348;52.158;5.588;2022-10-17T01:37:26;14.75;;;11.57;;
22250;SDS011;59348;52.158;5.588;2022-10-17T01:39:57;15.07;;;11.63;;
22250;SDS011;59348;52.158;5.588;2022-10-17T01:42:27;14.52;;;12.00;;
22250;SDS011;59348;52.158;5.588;2022-10-17T01:44:57;16.48;;;11.40;;
22250;SDS011;59348;52.158;5.588;2022-10-17T01:47:28;14.98;;;11.40;;
22250;SDS011;59348;52.158;5.588;2022-10-17T01:49:57;15.50;;;11.15;;
22250;SDS011;59348;52.158;5.588;2022-10-17T01:52:26;14.48;;;11.27;;
22250;SDS011;59348;52.158;5.588;2022-10-17T01:54:54;16.83;;;11.82;;
22250;SDS011;59348;52.158;5.588;2022-10-17T01:57:25;16.55;;;11.93;;
22250;SDS011;59348;52.158;5.588;2022-10-17T01:59:55;15.23;;;11.63;;
22250;SDS011;59348;52.158;5.588;2022-10-17T02:02:22;15.80;;;11.50;;
22250;SDS011;59348;52.158;5.588;2022-10-17T02:04:52;16.13;;;12.18;;
22250;SDS011;59348;52.158;5.588;2022-10-17T02:07:20;16.02;;;12.45;;
22250;SDS011;59348;52.158;5.588;2022-10-17T02:09:47;14.88;;;11.80;;
22250;SDS011;59348;52.158;5.588;2022-10-17T02:12:20;16.95;;;12.63;;
22250;SDS011;59348;52.158;5.588;2022-10-17T02:14:55;17.08;;;12.40;;
22250;SDS011;59348;52.158;5.588;2022-10-17T02:17:27;15.43;;;12.25;;
22250;SDS011;59348;52.158;5.588;2022-10-17T02:19:59;17.20;;;12.80;;
22250;SDS011;59348;52.158;5.588;2022-10-17T02:22:34;16.23;;;12.23;;
22250;SDS011;59348;52.158;5.588;2022-10-17T02:25:06;13.30;;;11.82;;
22250;SDS011;59348;52.158;5.588;2022-10-17T02:27:42;15.55;;;11.95;;
22250;SDS011;59348;52.158;5.588;2022-10-17T02:30:11;15.88;;;12.00;;
22250;SDS011;59348;52.158;5.588;2022-10-17T02:32:39;16.48;;;12.32;;
22250;SDS011;59348;52.158;5.588;2022-10-17T02:35:09;15.48;;;12.05;;
22250;SDS011;59348;52.158;5.588;2022-10-17T02:37:38;17.98;;;12.35;;
22250;SDS011;59348;52.158;5.588;2022-10-17T02:40:07;19.95;;;13.27;;
22250;SDS011;59348;52.158;5.588;2022-10-17T02:42:35;20.63;;;13.43;;
22250;SDS011;59348;52.158;5.588;2022-10-17T02:45:03;15.00;;;12.27;;
22250;SDS011;59348;52.158;5.588;2022-10-17T02:47:32;14.77;;;12.25;;
22250;SDS011;59348;52.158;5.588;2022-10-17T02:50:00;18.58;;;12.85;;
22250;SDS011;59348;52.158;5.588;2022-10-17T02:52:31;18.80;;;12.52;;
22250;SDS011;59348;52.158;5.588;2022-10-17T02:55:02;15.88;;;13.13;;
22250;SDS011;59348;52.158;5.588;2022-10-17T02:57:33;18.38;;;12.95;;
22250;SDS011;59348;52.158;5.588;2022-10-17T03:00:03;18.38;;;12.93;;
22250;SDS011;59348;52.158;5.588;2022-10-17T03:02:37;17.38;;;13.35;;
22250;SDS011;59348;52.158;5.588;2022-10-17T03:05:04;15.25;;;12.65;;
22250;SDS011;59348;52.158;5.588;2022-10-17T03:07:33;15.00;;;12.73;;
22250;SDS011;59348;52.158;5.588;2022-10-17T03:10:01;16.23;;;12.80;;
22250;SDS011;59348;52.158;5.588;2022-10-17T03:12:28;18.38;;;13.15;;
22250;SDS011;59348;52.158;5.588;2022-10-17T03:14:55;22.98;;;13.73;;
22250;SDS011;59348;52.158;5.588;2022-10-17T03:17:22;18.05;;;13.05;;
22250;SDS011;59348;52.158;5.588;2022-10-17T03:19:50;17.27;;;12.65;;
22250;SDS011;59348;52.158;5.588;2022-10-17T03:22:17;18.30;;;12.70;;
22250;SDS011;59348;52.158;5.588;2022-10-17T03:24:45;19.10;;;12.68;;
22250;SDS011;59348;52.158;5.588;2022-10-17T03:27:13;15.38;;;11.85;;
22250;SDS011;59348;52.158;5.588;2022-10-17T03:29:40;14.88;;;12.88;;
22250;SDS011;59348;52.158;5.588;2022-10-17T03:32:07;16.10;;;12.55;;
22250;SDS011;59348;52.158;5.588;2022-10-17T03:34:35;17.92;;;12.82;;
22250;SDS011;59348;52.158;5.588;2022-10-17T03:37:02;15.80;;;12.10;;
22250;SDS011;59348;52.158;5.588;2022-10-17T03:39:29;15.93;;;12.35;;
22250;SDS011;59348;52.158;5.588;2022-10-17T03:41:58;19.73;;;12.48;;
22250;SDS011;59348;52.158;5.588;2022-10-17T03:44:25;17.38;;;12.43;;
22250;SDS011;59348;52.158;5.588;2022-10-17T03:46:53;15.90;;;12.27;;
22250;SDS011;59348;52.158;5.588;2022-10-17T03:49:20;14.73;;;12.65;;
22250;SDS011;59348;52.158;5.588;2022-10-17T03:51:47;18.23;;;12.60;;
22250;SDS011;59348;52.158;5.588;2022-10-17T03:54:14;15.90;;;12.63;;
22250;SDS011;59348;52.158;5.588;2022-10-17T03:56:42;17.02;;;12.57;;
22250;SDS011;59348;52.158;5.588;2022-10-17T03:59:11;16.48;;;12.38;;
22250;SDS011;59348;52.158;5.588;2022-10-17T04:01:39;16.90;;;12.48;;
22250;SDS011;59348;52.158;5.588;2022-10-17T04:04:06;15.02;;;12.30;;
22250;SDS011;59348;52.158;5.588;2022-10-17T04:06:34;16.30;;;12.20;;
22250;SDS011;59348;52.158;5.588;2022-10-17T04:09:01;18.05;;;12.65;;
22250;SDS011;59348;52.158;5.588;2022-10-17T04:11:29;16.88;;;12.40;;
22250;SDS011;59348;52.158;5.588;2022-10-17T04:13:57;17.38;;;12.73;;
22250;SDS011;59348;52.158;5.588;2022-10-17T04:16:25;13.20;;;11.60;;
22250;SDS011;59348;52.158;5.588;2022-10-17T04:18:53;19.42;;;12.07;;
22250;SDS011;59348;52.158;5.588;2022-10-17T04:21:21;16.00;;;11.70;;
22250;SDS011;59348;52.158;5.588;2022-10-17T04:23:51;15.85;;;11.75;;
22250;SDS011;59348;52.158;5.588;2022-10-17T04:26:18;16.25;;;11.70;;
22250;SDS011;59348;52.158;5.588;2022-10-17T04:28:46;15.88;;;11.63;;
22250;SDS011;59348;52.158;5.588;2022-10-17T04:31:13;15.95;;;12.40;;
22250;SDS011;59348;52.158;5.588;2022-10-17T04:33:42;15.27;;;12.05;;
22250;SDS011;59348;52.158;5.588;2022-10-17T04:36:10;15.65;;;11.48;;
22250;SDS011;59348;52.158;5.588;2022-10-17T04:38:38;17.73;;;12.27;;
22250;SDS011;59348;52.158;5.588;2022-10-17T04:41:06;15.23;;;11.95;;
22250;SDS011;59348;52.158;5.588;2022-10-17T04:43:34;14.80;;;12.20;;
22250;SDS011;59348;52.158;5.588;2022-10-17T04:46:02;16.60;;;11.57;;
22250;SDS011;59348;52.158;5.588;2022-10-17T04:48:30;16.00;;;11.32;;
22250;SDS011;59348;52.158;5.588;2022-10-17T04:50:59;17.02;;;12.43;;
22250;SDS011;59348;52.158;5.588;2022-10-17T04:53:27;15.48;;;11.50;;
22250;SDS011;59348;52.158;5.588;2022-10-17T04:55:54;16.90;;;11.98;;
22250;SDS011;59348;52.158;5.588;2022-10-17T04:58:22;16.95;;;12.20;;
22250;SDS011;59348;52.158;5.588;2022-10-17T05:00:49;13.20;;;11.75;;
22250;SDS011;59348;52.158;5.588;2022-10-17T05:03:16;13.48;;;11.60;;
22250;SDS011;59348;52.158;5.588;2022-10-17T05:05:43;15.02;;;12.40;;
22250;SDS011;59348;52.158;5.588;2022-10-17T05:08:12;14.13;;;11.65;;
22250;SDS011;59348;52.158;5.588;2022-10-17T05:10:40;14.50;;;11.75;;
22250;SDS011;59348;52.158;5.588;2022-10-17T05:13:08;18.02;;;12.30;;
22250;SDS011;59348;52.158;5.588;2022-10-17T05:15:36;18.58;;;12.27;;
22250;SDS011;59348;52.158;5.588;2022-10-17T05:18:04;14.77;;;12.05;;
22250;SDS011;59348;52.158;5.588;2022-10-17T05:20:31;19.92;;;12.55;;
22250;SDS011;59348;52.158;5.588;2022-10-17T05:22:59;17.50;;;12.32;;
22250;SDS011;59348;52.158;5.588;2022-10-17T05:25:28;14.02;;;11.80;;
22250;SDS011;59348;52.158;5.588;2022-10-17T05:27:55;15.23;;;11.88;;
22250;SDS011;59348;52.158;5.588;2022-10-17T05:30:22;18.38;;;12.38;;
22250;SDS011;59348;52.158;5.588;2022-10-17T05:32:51;14.25;;;11.93;;
22250;SDS011;59348;52.158;5.588;2022-10-17T05:35:20;15.35;;;11.93;;
22250;SDS011;59348;52.158;5.588;2022-10-17T05:37:47;15.88;;;11.77;;
22250;SDS011;59348;52.158;5.588;2022-10-17T05:40:14;17.10;;;12.40;;
22250;SDS011;59348;52.158;5.588;2022-10-17T05:42:46;16.90;;;11.75;;
22250;SDS011;59348;52.158;5.588;2022-10-17T05:45:13;16.38;;;12.63;;
22250;SDS011;59348;52.158;5.588;2022-10-17T05:47:40;17.33;;;11.88;;
22250;SDS011;59348;52.158;5.588;2022-10-17T05:50:08;15.50;;;12.05;;
22250;SDS011;59348;52.158;5.588;2022-10-17T05:52:35;26.77;;;12.68;;
22250;SDS011;59348;52.158;5.588;2022-10-17T05:55:03;14.80;;;12.00;;
22250;SDS011;59348;52.158;5.588;2022-10-17T05:57:30;17.10;;;11.95;;
22250;SDS011;59348;52.158;5.588;2022-10-17T05:59:59;20.30;;;12.32;;
22250;SDS011;59348;52.158;5.588;2022-10-17T06:02:27;15.63;;;11.50;;
22250;SDS011;59348;52.158;5.588;2022-10-17T06:04:54;17.17;;;12.15;;
22250;SDS011;59348;52.158;5.588;2022-10-17T06:07:21;15.10;;;11.50;;
22250;SDS011;59348;52.158;5.588;2022-10-17T06:09:48;13.88;;;12.13;;
22250;SDS011;59348;52.158;5.588;2022-10-17T06:12:16;16.35;;;12.38;;
22250;SDS011;59348;52.158;5.588;2022-10-17T06:14:43;14.48;;;11.85;;
22250;SDS011;59348;52.158;5.588;2022-10-17T06:17:12;15.48;;;11.98;;
22250;SDS011;59348;52.158;5.588;2022-10-17T06:19:39;19.77;;;12.38;;
22250;SDS011;59348;52.158;5.588;2022-10-17T06:22:08;15.15;;;12.23;;
22250;SDS011;59348;52.158;5.588;2022-10-17T06:24:35;18.38;;;12.10;;
22250;SDS011;59348;52.158;5.588;2022-10-17T06:27:03;17.60;;;12.25;;
22250;SDS011;59348;52.158;5.588;2022-10-17T06:29:30;15.52;;;11.98;;
22250;SDS011;59348;52.158;5.588;2022-10-17T06:31:57;14.90;;;11.95;;
22250;SDS011;59348;52.158;5.588;2022-10-17T06:34:26;16.88;;;12.52;;
22250;SDS011;59348;52.158;5.588;2022-10-17T06:36:53;16.30;;;12.45;;
22250;SDS011;59348;52.158;5.588;2022-10-17T06:39:20;14.75;;;11.98;;
22250;SDS011;59348;52.158;5.588;2022-10-17T06:41:50;14.57;;;12.25;;
22250;SDS011;59348;52.158;5.588;2022-10-17T06:44:18;14.35;;;12.02;;
22250;SDS011;59348;52.158;5.588;2022-10-17T06:46:46;18.38;;;13.00;;
22250;SDS011;59348;52.158;5.588;2022-10-17T06:49:13;17.60;;;12.38;;
22250;SDS011;59348;52.158;5.588;2022-10-17T06:51:42;15.80;;;12.15;;
22250;SDS011;59348;52.158;5.588;2022-10-17T06:54:09;14.75;;;12.18;;
22250;SDS011;59348;52.158;5.588;2022-10-17T06:56:36;15.88;;;12.88;;
22250;SDS011;59348;52.158;5.588;2022-10-17T06:59:04;15.75;;;11.85;;
22250;SDS011;59348;52.158;5.588;2022-10-17T07:01:31;21.27;;;11.73;;
22250;SDS011;59348;52.158;5.588;2022-10-17T07:03:59;18.98;;;12.05;;
22250;SDS011;59348;52.158;5.588;2022-10-17T07:06:26;16.00;;;11.45;;
22250;SDS011;59348;52.158;5.588;2022-10-17T07:08:55;19.98;;;11.65;;
22250;SDS011;59348;52.158;5.588;2022-10-17T07:11:23;14.70;;;11.32;;
22250;SDS011;59348;52.158;5.588;2022-10-17T07:13:51;16.40;;;11.90;;
22250;SDS011;59348;52.158;5.588;2022-10-17T07:16:19;19.05;;;12.25;;
22250;SDS011;59348;52.158;5.588;2022-10-17T07:18:47;16.60;;;11.93;;
22250;SDS011;59348;52.158;5.588;2022-10-17T07:21:15;14.02;;;11.60;;
22250;SDS011;59348;52.158;5.588;2022-10-17T07:23:42;14.65;;;11.52;;
22250;SDS011;59348;52.158;5.588;2022-10-17T07:26:11;15.82;;;11.75;;
22250;SDS011;59348;52.158;5.588;2022-10-17T07:28:39;18.02;;;11.60;;
22250;SDS011;59348;52.158;5.588;2022-10-17T07:31:08;15.93;;;11.63;;
22250;SDS011;59348;52.158;5.588;2022-10-17T07:33:35;15.48;;;11.60;;
22250;SDS011;59348;52.158;5.588;2022-10-17T07:36:03;17.17;;;11.90;;
22250;SDS011;59348;52.158;5.588;2022-10-17T07:38:31;17.15;;;11.88;;
22250;SDS011;59348;52.158;5.588;2022-10-17T07:40:59;18.95;;;11.60;;
22250;SDS011;59348;52.158;5.588;2022-10-17T07:43:28;19.67;;;11.18;;
22250;SDS011;59348;52.158;5.588;2022-10-17T07:45:56;14.40;;;11.60;;
22250;SDS011;59348;52.158;5.588;2022-10-17T07:48:23;14.52;;;11.48;;
22250;SDS011;59348;52.158;5.588;2022-10-17T07:50:51;16.40;;;11.50;;
22250;SDS011;59348;52.158;5.588;2022-10-17T07:53:18;14.27;;;10.85;;
22250;SDS011;59348;52.158;5.588;2022-10-17T07:55:45;19.05;;;11.57;;
22250;SDS011;59348;52.158;5.588;2022-10-17T07:58:13;17.15;;;12.00;;
22250;SDS011;59348;52.158;5.588;2022-10-17T08:00:42;15.98;;;12.02;;
22250;SDS011;59348;52.158;5.588;2022-10-17T08:03:12;20.42;;;11.50;;
22250;SDS011;59348;52.158;5.588;2022-10-17T08:05:39;16.67;;;11.48;;
22250;SDS011;59348;52.158;5.588;2022-10-17T08:08:07;17.23;;;11.38;;
22250;SDS011;59348;52.158;5.588;2022-10-17T08:10:34;17.80;;;12.10;;
22250;SDS011;59348;52.158;5.588;2022-10-17T08:13:02;20.17;;;12.48;;
22250;SDS011;59348;52.158;5.588;2022-10-17T08:15:30;22.35;;;12.75;;
22250;SDS011;59348;52.158;5.588;2022-10-17T08:17:59;19.27;;;12.80;;
22250;SDS011;59348;52.158;5.588;2022-10-17T08:20:26;22.30;;;12.55;;
22250;SDS011;59348;52.158;5.588;2022-10-17T08:22:54;14.57;;;12.07;;
22250;SDS011;59348;52.158;5.588;2022-10-17T08:25:21;20.02;;;13.10;;
22250;SDS011;59348;52.158;5.588;2022-10-17T08:27:49;18.95;;;13.05;;
22250;SDS011;59348;52.158;5.588;2022-10-17T08:30:17;15.38;;;12.45;;
22250;SDS011;59348;52.158;5.588;2022-10-17T08:32:44;20.15;;;12.50;;
22250;SDS011;59348;52.158;5.588;2022-10-17T08:35:13;17.48;;;13.23;;
22250;SDS011;59348;52.158;5.588;2022-10-17T08:37:40;20.08;;;13.73;;
22250;SDS011;59348;52.158;5.588;2022-10-17T08:40:09;17.90;;;13.10;;
22250;SDS011;59348;52.158;5.588;2022-10-17T08:42:43;18.88;;;13.38;;
22250;SDS011;59348;52.158;5.588;2022-10-17T08:45:15;24.25;;;13.45;;
22250;SDS011;59348;52.158;5.588;2022-10-17T08:47:44;22.27;;;13.73;;
22250;SDS011;59348;52.158;5.588;2022-10-17T08:50:13;18.00;;;12.52;;
22250;SDS011;59348;52.158;5.588;2022-10-17T08:52:42;18.20;;;13.40;;
22250;SDS011;59348;52.158;5.588;2022-10-17T08:55:12;16.67;;;13.07;;
22250;SDS011;59348;52.158;5.588;2022-10-17T08:57:41;19.33;;;13.40;;
22250;SDS011;59348;52.158;5.588;2022-10-17T09:00:12;15.15;;;13.45;;
22250;SDS011;59348;52.158;5.588;2022-10-17T09:02:43;18.65;;;13.80;;
22250;SDS011;59348;52.158;5.588;2022-10-17T09:05:20;16.92;;;13.35;;
22250;SDS011;59348;52.158;5.588;2022-10-17T09:07:51;19.27;;;14.68;;
22250;SDS011;59348;52.158;5.588;2022-10-17T09:10:24;19.20;;;13.73;;
22250;SDS011;59348;52.158;5.588;2022-10-17T09:12:58;21.60;;;14.07;;
22250;SDS011;59348;52.158;5.588;2022-10-17T09:15:33;17.88;;;13.32;;
22250;SDS011;59348;52.158;5.588;2022-10-17T09:18:02;22.42;;;13.82;;
22250;SDS011;59348;52.158;5.588;2022-10-17T09:20:32;15.88;;;13.30;;
22250;SDS011;59348;52.158;5.588;2022-10-17T09:23:03;20.42;;;12.63;;
22250;SDS011;59348;52.158;5.588;2022-10-17T09:25:34;16.48;;;12.73;;
22250;SDS011;59348;52.158;5.588;2022-10-17T09:28:09;14.88;;;12.68;;
22250;SDS011;59348;52.158;5.588;2022-10-17T09:30:39;19.67;;;12.27;;
22250;SDS011;59348;52.158;5.588;2022-10-17T09:33:09;16.70;;;12.07;;
22250;SDS011;59348;52.158;5.588;2022-10-17T09:35:38;14.50;;;12.77;;
22250;SDS011;59348;52.158;5.588;2022-10-17T09:38:10;16.85;;;12.68;;
22250;SDS011;59348;52.158;5.588;2022-10-17T09:40:39;13.40;;;12.00;;
22250;SDS011;59348;52.158;5.588;2022-10-17T09:43:07;13.93;;;12.38;;
22250;SDS011;59348;52.158;5.588;2022-10-17T09:45:37;15.57;;;12.45;;
22250;SDS011;59348;52.158;5.588;2022-10-17T09:48:09;14.48;;;12.85;;
22250;SDS011;59348;52.158;5.588;2022-10-17T09:50:42;15.55;;;13.35;;
22250;SDS011;59348;52.158;5.588;2022-10-17T09:53:11;17.90;;;13.68;;
22250;SDS011;59348;52.158;5.588;2022-10-17T09:55:39;16.58;;;13.38;;
22250;SDS011;59348;52.158;5.588;2022-10-17T09:58:08;20.02;;;14.00;;
22250;SDS011;59348;52.158;5.588;2022-10-17T10:00:36;20.45;;;13.63;;
22250;SDS011;59348;52.158;5.588;2022-10-17T10:03:07;16.55;;;13.25;;
22250;SDS011;59348;52.158;5.588;2022-10-17T10:05:35;16.33;;;12.90;;
22250;SDS011;59348;52.158;5.588;2022-10-17T10:08:04;17.30;;;12.68;;
22250;SDS011;59348;52.158;5.588;2022-10-17T10:10:32;15.77;;;13.02;;
22250;SDS011;59348;52.158;5.588;2022-10-17T10:13:01;13.90;;;12.45;;
22250;SDS011;59348;52.158;5.588;2022-10-17T10:15:30;18.17;;;11.65;;
22250;SDS011;59348;52.158;5.588;2022-10-17T10:17:58;15.25;;;11.82;;
22250;SDS011;59348;52.158;5.588;2022-10-17T10:20:28;15.90;;;12.27;;
22250;SDS011;59348;52.158;5.588;2022-10-17T10:23:05;16.85;;;12.27;;
22250;SDS011;59348;52.158;5.588;2022-10-17T10:25:32;15.13;;;12.13;;
22250;SDS011;59348;52.158;5.588;2022-10-17T10:28:01;13.70;;;11.95;;
22250;SDS011;59348;52.158;5.588;2022-10-17T10:30:29;14.00;;;12.38;;
22250;SDS011;59348;52.158;5.588;2022-10-17T10:32:57;16.23;;;12.95;;
22250;SDS011;59348;52.158;5.588;2022-10-17T10:35:28;16.00;;;12.30;;
22250;SDS011;59348;52.158;5.588;2022-10-17T10:37:57;14.23;;;12.73;;
22250;SDS011;59348;52.158;5.588;2022-10-17T10:40:27;14.20;;;12.73;;
22250;SDS011;59348;52.158;5.588;2022-10-17T10:42:57;18.38;;;12.85;;
22250;SDS011;59348;52.158;5.588;2022-10-17T10:45:25;15.02;;;12.93;;
22250;SDS011;59348;52.158;5.588;2022-10-17T10:47:53;16.77;;;12.70;;
22250;SDS011;59348;52.158;5.588;2022-10-17T10:50:23;16.98;;;12.60;;
22250;SDS011;59348;52.158;5.588;2022-10-17T10:52:53;15.65;;;13.52;;
22250;SDS011;59348;52.158;5.588;2022-10-17T10:55:22;15.30;;;13.05;;
22250;SDS011;59348;52.158;5.588;2022-10-17T10:57:53;15.40;;;12.40;;
22250;SDS011;59348;52.158;5.588;2022-10-17T11:00:23;16.73;;;13.00;;
22250;SDS011;59348;52.158;5.588;2022-10-17T11:02:53;14.93;;;12.77;;
22250;SDS011;59348;52.158;5.588;2022-10-17T11:05:33;15.18;;;12.13;;
22250;SDS011;59348;52.158;5.588;2022-10-17T11:08:04;17.65;;;12.20;;
22250;SDS011;59348;52.158;5.588;2022-10-17T11:10:34;13.25;;;11.85;;
22250;SDS011;59348;52.158;5.588;2022-10-17T11:13:05;14.10;;;10.85;;
22250;SDS011;59348;52.158;5.588;2022-10-17T11:15:39;13.88;;;11.13;;
22250;SDS011;59348;52.158;5.588;2022-10-17T11:18:10;13.23;;;11.48;;
22250;SDS011;59348;52.158;5.588;2022-10-17T11:20:42;11.82;;;10.60;;
22250;SDS011;59348;52.158;5.588;2022-10-17T11:23:14;14.52;;;11.93;;
22250;SDS011;59348;52.158;5.588;2022-10-17T11:25:45;15.15;;;11.25;;
22250;SDS011;59348;52.158;5.588;2022-10-17T11:28:14;12.50;;;10.48;;
22250;SDS011;59348;52.158;5.588;2022-10-17T11:30:46;12.57;;;11.25;;
22250;SDS011;59348;52.158;5.588;2022-10-17T11:33:17;13.88;;;10.48;;
22250;SDS011;59348;52.158;5.588;2022-10-17T11:35:46;13.15;;;10.38;;
22250;SDS011;59348;52.158;5.588;2022-10-17T11:38:16;12.13;;;10.77;;
22250;SDS011;59348;52.158;5.588;2022-10-17T11:40:45;15.23;;;10.88;;
22250;SDS011;59348;52.158;5.588;2022-10-17T11:43:16;15.15;;;10.48;;
22250;SDS011;59348;52.158;5.588;2022-10-17T11:45:45;12.48;;;10.90;;
22250;SDS011;59348;52.158;5.588;2022-10-17T11:48:15;13.88;;;10.45;;
22250;SDS011;59348;52.158;5.588;2022-10-17T11:50:46;12.07;;;10.32;;
22250;SDS011;59348;52.158;5.588;2022-10-17T11:53:15;12.15;;;10.07;;
22250;SDS011;59348;52.158;5.588;2022-10-17T11:55:43;12.82;;;10.25;;
22250;SDS011;59348;52.158;5.588;2022-10-17T11:58:16;13.90;;;10.63;;
22250;SDS011;59348;52.158;5.588;2022-10-17T12:00:48;11.68;;;10.48;;
22250;SDS011;59348;52.158;5.588;2022-10-17T12:03:20;12.48;;;10.35;;
22250;SDS011;59348;52.158;5.588;2022-10-17T12:05:51;13.48;;;10.27;;
22250;SDS011;59348;52.158;5.588;2022-10-17T12:08:23;12.50;;;10.50;;
22250;SDS011;59348;52.158;5.588;2022-10-17T12:10:52;12.93;;;10.52;;
22250;SDS011;59348;52.158;5.588;2022-10-17T12:18:50;11.32;;;10.00;;
22250;SDS011;59348;52.158;5.588;2022-10-17T12:21:18;13.07;;;9.63;;
22250;SDS011;59348;52.158;5.588;2022-10-17T12:23:50;13.05;;;9.68;;
22250;SDS011;59348;52.158;5.588;2022-10-17T12:26:24;10.65;;;9.52;;
22250;SDS011;59348;52.158;5.588;2022-10-17T12:28:51;11.90;;;10.02;;
22250;SDS011;59348;52.158;5.588;2022-10-17T12:31:20;11.93;;;9.63;;
22250;SDS011;59348;52.158;5.588;2022-10-17T12:33:51;15.30;;;9.93;;
22250;SDS011;59348;52.158;5.588;2022-10-17T12:49:51;13.68;;;9.88;;
22250;SDS011;59348;52.158;5.588;2022-10-17T12:52:19;12.40;;;9.93;;
22250;SDS011;59348;52.158;5.588;2022-10-17T12:54:49;11.65;;;10.43;;
22250;SDS011;59348;52.158;5.588;2022-10-17T12:57:19;11.02;;;9.80;;
22250;SDS011;59348;52.158;5.588;2022-10-17T12:59:47;13.15;;;10.45;;
22250;SDS011;59348;52.158;5.588;2022-10-17T13:02:17;14.82;;;11.38;;
22250;SDS011;59348;52.158;5.588;2022-10-17T13:04:46;14.00;;;10.30;;
22250;SDS011;59348;52.158;5.588;2022-10-17T13:07:17;12.52;;;10.35;;
22250;SDS011;59348;52.158;5.588;2022-10-17T13:09:45;12.82;;;11.10;;
22250;SDS011;59348;52.158;5.588;2022-10-17T13:12:13;14.75;;;10.80;;
22250;SDS011;59348;52.158;5.588;2022-10-17T13:14:41;16.25;;;10.98;;
22250;SDS011;59348;52.158;5.588;2022-10-17T13:17:19;12.27;;;10.75;;
22250;SDS011;59348;52.158;5.588;2022-10-17T13:19:47;15.52;;;11.05;;
22250;SDS011;59348;52.158;5.588;2022-10-17T13:22:17;13.63;;;11.18;;
22250;SDS011;59348;52.158;5.588;2022-10-17T13:24:45;12.70;;;10.80;;
22250;SDS011;59348;52.158;5.588;2022-10-17T13:27:20;14.82;;;11.00;;
22250;SDS011;59348;52.158;5.588;2022-10-17T13:29:48;12.40;;;11.15;;
22250;SDS011;59348;52.158;5.588;2022-10-17T13:32:16;15.57;;;11.38;;
22250;SDS011;59348;52.158;5.588;2022-10-17T13:34:43;14.70;;;11.30;;
22250;SDS011;59348;52.158;5.588;2022-10-17T13:37:11;13.60;;;11.55;;
22250;SDS011;59348;52.158;5.588;2022-10-17T13:39:41;13.45;;;11.27;;
22250;SDS011;59348;52.158;5.588;2022-10-17T13:42:15;13.25;;;11.27;;
22250;SDS011;59348;52.158;5.588;2022-10-17T13:44:43;14.70;;;11.52;;
22250;SDS011;59348;52.158;5.588;2022-10-17T13:47:19;14.77;;;11.07;;
22250;SDS011;59348;52.158;5.588;2022-10-17T13:49:47;14.52;;;11.52;;
22250;SDS011;59348;52.158;5.588;2022-10-17T13:52:16;14.98;;;12.80;;
22250;SDS011;59348;52.158;5.588;2022-10-17T13:54:45;14.90;;;11.95;;
22250;SDS011;59348;52.158;5.588;2022-10-17T13:57:16;13.38;;;11.55;;
22250;SDS011;59348;52.158;5.588;2022-10-17T13:59:44;12.02;;;10.82;;
22250;SDS011;59348;52.158;5.588;2022-10-17T14:02:13;13.65;;;11.32;;
22250;SDS011;59348;52.158;5.588;2022-10-17T14:04:41;12.20;;;10.90;;
22250;SDS011;59348;52.158;5.588;2022-10-17T14:07:14;12.20;;;10.55;;
22250;SDS011;59348;52.158;5.588;2022-10-17T14:09:46;13.30;;;10.10;;
22250;SDS011;59348;52.158;5.588;2022-10-17T14:12:14;12.10;;;10.50;;
22250;SDS011;59348;52.158;5.588;2022-10-17T14:14:45;11.82;;;10.55;;
22250;SDS011;59348;52.158;5.588;2022-10-17T14:17:13;13.48;;;10.60;;
22250;SDS011;59348;52.158;5.588;2022-10-17T14:19:41;13.25;;;10.60;;
22250;SDS011;59348;52.158;5.588;2022-10-17T14:22:16;11.40;;;9.82;;
22250;SDS011;59348;52.158;5.588;2022-10-17T14:24:44;11.82;;;9.48;;
22250;SDS011;59348;52.158;5.588;2022-10-17T14:29:55;14.10;;;10.27;;
22250;SDS011;59348;52.158;5.588;2022-10-17T14:32:25;10.35;;;9.23;;
22250;SDS011;59348;52.158;5.588;2022-10-17T14:34:52;11.57;;;10.20;;
22250;SDS011;59348;52.158;5.588;2022-10-17T14:37:24;12.13;;;9.88;;
22250;SDS011;59348;52.158;5.588;2022-10-17T14:39:53;12.25;;;9.02;;
22250;SDS011;59348;52.158;5.588;2022-10-17T14:42:21;12.65;;;9.18;;
22250;SDS011;59348;52.158;5.588;2022-10-17T14:44:49;13.52;;;9.35;;
22250;SDS011;59348;52.158;5.588;2022-10-17T14:47:19;11.68;;;9.05;;
22250;SDS011;59348;52.158;5.588;2022-10-17T14:49:48;13.80;;;9.60;;
22250;SDS011;59348;52.158;5.588;2022-10-17T14:52:24;11.13;;;9.05;;
22250;SDS011;59348;52.158;5.588;2022-10-17T14:54:52;12.77;;;9.32;;
22250;SDS011;59348;52.158;5.588;2022-10-17T14:57:22;12.18;;;9.18;;
22250;SDS011;59348;52.158;5.588;2022-10-17T14:59:50;11.02;;;8.88;;
22250;SDS011;59348;52.158;5.588;2022-10-17T15:02:18;10.85;;;9.02;;